createdAt,value
2019-03-06T00:02:05.134Z,96895.00
2019-03-06T00:04:36.382Z,96904.00
2019-03-06T00:07:07.485Z,96900.00
2019-03-06T00:09:39.060Z,96917.00
2019-03-06T00:12:10.185Z,96911.00
2019-03-06T00:14:42.024Z,96900.00
2019-03-06T00:17:13.610Z,96908.00
2019-03-06T00:19:45.149Z,96908.00
2019-03-06T00:22:17.031Z,96922.00
2019-03-06T00:24:48.176Z,96914.00
2019-03-06T00:27:19.371Z,96914.00
2019-03-06T00:29:50.794Z,96926.00
2019-03-06T00:32:22.050Z,96916.00
2019-03-06T00:34:54.384Z,96914.00
2019-03-06T00:37:25.802Z,96908.00
2019-03-06T00:40:03.370Z,96927.00
2019-03-06T00:42:36.663Z,96915.00
2019-03-06T00:45:10.222Z,96918.00
2019-03-06T00:47:41.637Z,96913.00
2019-03-06T00:50:12.866Z,96918.00
2019-03-06T00:52:44.125Z,96918.00
2019-03-06T00:55:15.451Z,96915.00
2019-03-06T00:57:47.024Z,96907.00
2019-03-06T01:00:20.630Z,96907.00
2019-03-06T01:02:51.919Z,96913.00
2019-03-06T01:05:23.893Z,96915.00
2019-03-06T01:07:55.087Z,96907.00
2019-03-06T01:10:26.321Z,96902.00
2019-03-06T01:12:57.689Z,96911.00
2019-03-06T01:15:28.967Z,96911.00
2019-03-06T01:18:00.079Z,96908.00
2019-03-06T01:20:31.310Z,96906.00
2019-03-06T01:23:02.553Z,96895.00
2019-03-06T01:25:33.878Z,96900.00
2019-03-06T01:28:05.457Z,96897.00
2019-03-06T01:30:36.693Z,96896.00
2019-03-06T01:33:42.229Z,96909.00
2019-03-06T01:36:29.086Z,96891.00
2019-03-06T01:39:10.383Z,96891.00
2019-03-06T01:41:51.850Z,96879.00
2019-03-06T01:44:27.340Z,96883.00
2019-03-06T01:46:58.423Z,96884.00
2019-03-06T01:49:29.969Z,96872.00
2019-03-06T01:52:01.067Z,96879.00
2019-03-06T01:54:32.420Z,96874.00
2019-03-06T01:57:03.642Z,96879.00
2019-03-06T01:59:35.468Z,96877.00
2019-03-06T02:02:06.685Z,96877.00
2019-03-06T02:04:37.815Z,96880.00
2019-03-06T02:07:10.665Z,96878.00
2019-03-06T02:09:42.518Z,96883.00
2019-03-06T02:12:14.794Z,96890.00
2019-03-06T02:14:46.358Z,96891.00
2019-03-06T02:17:17.518Z,96882.00
2019-03-06T02:19:48.771Z,96883.00
2019-03-06T02:22:20.661Z,96886.00
2019-03-06T02:24:51.766Z,96897.00
2019-03-06T02:27:23.742Z,96886.00
2019-03-06T02:29:54.949Z,96878.00
2019-03-06T02:32:26.030Z,96879.00
2019-03-06T02:34:57.289Z,96882.00
2019-03-06T02:37:28.461Z,96891.00
2019-03-06T02:39:59.567Z,96882.00
2019-03-06T02:42:30.936Z,96885.00
2019-03-06T02:45:02.469Z,96871.00
2019-03-06T02:47:34.194Z,96880.00
2019-03-06T02:50:06.302Z,96875.00
2019-03-06T02:52:37.729Z,96877.00
2019-03-06T02:55:10.970Z,96885.00
2019-03-06T02:57:47.135Z,96878.00
2019-03-06T03:00:33.807Z,96875.00
2019-03-06T03:03:27.266Z,96889.00
2019-03-06T03:06:12.340Z,96882.00
2019-03-06T03:08:43.498Z,96879.00
2019-03-06T03:11:14.691Z,96874.00
2019-03-06T03:13:45.722Z,96873.00
2019-03-06T03:16:16.985Z,96872.00
2019-03-06T03:18:48.291Z,96866.00
2019-03-06T03:21:19.474Z,96862.00
2019-03-06T03:23:50.712Z,96869.00
2019-03-06T03:26:21.937Z,96864.00
2019-03-06T03:28:53.863Z,96860.00
2019-03-06T03:31:25.516Z,96864.00
2019-03-06T03:33:56.662Z,96860.00
2019-03-06T03:36:27.886Z,96859.00
2019-03-06T03:38:59.119Z,96854.00
2019-03-06T03:41:30.466Z,96845.00
2019-03-06T03:44:01.621Z,96850.00
2019-03-06T03:46:33.131Z,96853.00
2019-03-06T03:49:04.351Z,96847.00
2019-03-06T03:51:35.711Z,96846.00
2019-03-06T03:54:06.981Z,96852.00
2019-03-06T03:56:38.480Z,96845.00
2019-03-06T03:59:09.712Z,96853.00
2019-03-06T04:01:40.969Z,96844.00
2019-03-06T04:04:12.198Z,96838.00
2019-03-06T04:06:43.493Z,96826.00
2019-03-06T04:09:14.641Z,96820.00
2019-03-06T04:11:45.972Z,96831.00
2019-03-06T04:14:17.663Z,96838.00
2019-03-06T04:16:49.042Z,96825.00
2019-03-06T04:19:20.072Z,96823.00
2019-03-06T04:21:51.251Z,96826.00
2019-03-06T04:24:22.364Z,96830.00
2019-03-06T04:26:53.942Z,96835.00
2019-03-06T04:29:25.162Z,96842.00
2019-03-06T04:31:56.440Z,96838.00
2019-03-06T04:34:27.563Z,96834.00
2019-03-06T04:36:58.768Z,96826.00
2019-03-06T04:39:31.067Z,96822.00
2019-03-06T04:42:02.294Z,96814.00
2019-03-06T04:44:33.505Z,96816.00
2019-03-06T04:47:04.823Z,96821.00
2019-03-06T04:49:35.902Z,96838.00
2019-03-06T04:52:07.087Z,96850.00
2019-03-06T04:54:38.557Z,96847.00
2019-03-06T04:57:10.740Z,96847.00
2019-03-06T04:59:42.085Z,96857.00
2019-03-06T05:02:13.517Z,96858.00
2019-03-06T05:04:44.975Z,96846.00
2019-03-06T05:07:16.418Z,96853.00
2019-03-06T05:09:48.417Z,96854.00
2019-03-06T05:12:19.891Z,96857.00
2019-03-06T05:14:51.012Z,96857.00
2019-03-06T05:17:39.778Z,96845.00
2019-03-06T05:20:11.176Z,96843.00
2019-03-06T05:22:42.700Z,96836.00
2019-03-06T05:25:14.000Z,96840.00
2019-03-06T05:27:45.341Z,96835.00
2019-03-06T05:30:17.772Z,96823.00
2019-03-06T05:32:49.203Z,96837.00
2019-03-06T05:36:22.765Z,96830.00
2019-03-06T05:39:11.950Z,96828.00
2019-03-06T05:41:43.366Z,96822.00
2019-03-06T05:44:14.639Z,96823.00
2019-03-06T05:46:45.795Z,96822.00
2019-03-06T05:49:17.316Z,96826.00
2019-03-06T05:51:48.865Z,96838.00
2019-03-06T05:54:20.416Z,96832.00
2019-03-06T05:56:51.566Z,96817.00
2019-03-06T05:59:23.749Z,96819.00
2019-03-06T06:01:54.847Z,96808.00
2019-03-06T06:04:25.997Z,96805.00
2019-03-06T06:06:57.469Z,96793.00
2019-03-06T06:09:28.924Z,96792.00
2019-03-06T06:12:00.162Z,96782.00
2019-03-06T06:14:31.711Z,96769.00
2019-03-06T06:17:02.786Z,96765.00
2019-03-06T06:19:33.976Z,96761.00
2019-03-06T06:22:20.687Z,96758.00
2019-03-06T06:24:52.153Z,96756.00
2019-03-06T06:27:23.564Z,96759.00
2019-03-06T06:29:55.107Z,96750.00
2019-03-06T06:32:26.256Z,96763.00
2019-03-06T06:34:57.648Z,96759.00
2019-03-06T06:37:28.949Z,96763.00
2019-03-06T06:40:00.556Z,96769.00
2019-03-06T06:42:31.723Z,96774.00
2019-03-06T06:45:02.886Z,96773.00
2019-03-06T06:47:34.492Z,96782.00
2019-03-06T06:50:07.289Z,96778.00
2019-03-06T06:53:36.200Z,96785.00
2019-03-06T06:57:18.899Z,96772.00
2019-03-06T07:00:56.099Z,96779.00
2019-03-06T07:04:25.623Z,96767.00
2019-03-06T07:07:06.844Z,96783.00
2019-03-06T07:09:55.997Z,96787.00
2019-03-06T07:12:38.029Z,96795.00
2019-03-06T07:15:28.378Z,96784.00
2019-03-06T07:18:18.492Z,96783.00
2019-03-06T07:20:56.048Z,96764.00
2019-03-06T07:23:52.419Z,96765.00
2019-03-06T07:26:39.654Z,96749.00
2019-03-06T07:29:20.551Z,96741.00
2019-03-06T07:32:14.002Z,96728.00
2019-03-06T07:35:58.559Z,96732.00
2019-03-06T07:38:30.402Z,96722.00
2019-03-06T07:41:09.958Z,96734.00
2019-03-06T07:44:00.434Z,96733.00
2019-03-06T07:46:56.430Z,96708.00
2019-03-06T07:49:44.754Z,96705.00
2019-03-06T07:52:18.303Z,96705.00
2019-03-06T07:55:07.028Z,96691.00
2019-03-06T07:58:33.101Z,96696.00
2019-03-06T08:01:04.797Z,96703.00
2019-03-06T08:03:41.882Z,96693.00
2019-03-06T08:06:13.049Z,96689.00
2019-03-06T08:08:44.510Z,96695.00
2019-03-06T08:11:24.194Z,96693.00
2019-03-06T08:14:03.829Z,96687.00
2019-03-06T08:16:54.080Z,96697.00
2019-03-06T08:19:44.409Z,96700.00
2019-03-06T08:22:23.513Z,96691.00
2019-03-06T08:25:01.979Z,96692.00
2019-03-06T08:27:33.165Z,96692.00
2019-03-06T08:30:06.434Z,96685.00
2019-03-06T08:32:38.554Z,96698.00
2019-03-06T08:35:10.750Z,96699.00
2019-03-06T08:37:41.950Z,96700.00
2019-03-06T08:40:13.739Z,96694.00
2019-03-06T08:42:44.920Z,96701.00
2019-03-06T08:45:18.975Z,96700.00
2019-03-06T08:48:08.354Z,96694.00
2019-03-06T08:50:54.258Z,96680.00
2019-03-06T08:53:33.548Z,96640.00
2019-03-06T08:56:09.142Z,96560.00
2019-03-06T08:58:58.746Z,96573.00
2019-03-06T09:02:00.525Z,96542.00
2019-03-06T09:05:00.243Z,96627.00
2019-03-06T09:07:50.000Z,96653.00
2019-03-06T09:10:39.034Z,96641.00
2019-03-06T09:13:19.596Z,96632.00
2019-03-06T09:16:10.312Z,96650.00
2019-03-06T09:19:00.503Z,96648.00
2019-03-06T09:21:51.728Z,96645.00
2019-03-06T09:24:28.614Z,96643.00
2019-03-06T09:27:19.160Z,96637.00
2019-03-06T09:30:15.920Z,96647.00
2019-03-06T09:32:58.720Z,96634.00
2019-03-06T09:36:04.174Z,96640.00
2019-03-06T09:39:00.343Z,96648.00
2019-03-06T09:41:42.956Z,96633.00
2019-03-06T09:44:23.309Z,96641.00
2019-03-06T09:47:16.238Z,96642.00
2019-03-06T09:50:01.182Z,96634.00
2019-03-06T09:52:50.654Z,96622.00
2019-03-06T09:55:56.201Z,96631.00
2019-03-06T09:58:46.518Z,96621.00
2019-03-06T10:01:27.118Z,96617.00
2019-03-06T10:04:20.071Z,96623.00
2019-03-06T10:07:25.970Z,96600.00
2019-03-06T10:10:12.630Z,96630.00
2019-03-06T10:13:08.714Z,96620.00
2019-03-06T10:15:46.421Z,96621.00
2019-03-06T10:18:35.633Z,96624.00
2019-03-06T10:21:07.392Z,96613.00
2019-03-06T10:23:38.883Z,96617.00
2019-03-06T10:26:10.154Z,96600.00
2019-03-06T10:28:41.737Z,96608.00
2019-03-06T10:31:13.431Z,96618.00
2019-03-06T10:33:44.681Z,96616.00
2019-03-06T10:36:16.448Z,96618.00
2019-03-06T10:38:47.703Z,96628.00
2019-03-06T10:41:19.134Z,96624.00
2019-03-06T10:43:50.681Z,96622.00
2019-03-06T10:46:21.895Z,96618.00
2019-03-06T10:48:53.143Z,96602.00
2019-03-06T10:51:24.407Z,96599.00
2019-03-06T10:53:55.641Z,96597.00
2019-03-06T10:56:27.214Z,96605.00
2019-03-06T10:58:59.534Z,96586.00
2019-03-06T11:01:31.139Z,96587.00
2019-03-06T11:04:24.645Z,96583.00
2019-03-06T11:06:56.046Z,96563.00
2019-03-06T11:09:27.988Z,96564.00
2019-03-06T11:11:59.906Z,96563.00
2019-03-06T11:14:31.570Z,96551.00
2019-03-06T11:17:02.958Z,96536.00
2019-03-06T11:19:34.500Z,96553.00
2019-03-06T11:22:07.110Z,96548.00
2019-03-06T11:24:38.652Z,96538.00
2019-03-06T11:27:10.278Z,96541.00
2019-03-06T11:29:41.534Z,96538.00
2019-03-06T11:32:12.976Z,96547.00
2019-03-06T11:34:44.531Z,96526.00
2019-03-06T11:37:15.851Z,96527.00
2019-03-06T11:39:47.128Z,96521.00
2019-03-06T11:42:18.380Z,96511.00
2019-03-06T11:44:49.625Z,96509.00
2019-03-06T11:47:21.279Z,96493.00
2019-03-06T11:49:52.966Z,96510.00
2019-03-06T11:52:24.253Z,96488.00
2019-03-06T11:54:55.496Z,96483.00
2019-03-06T11:57:26.827Z,96497.00
2019-03-06T11:59:58.055Z,96488.00
2019-03-06T12:02:29.456Z,96500.00
2019-03-06T12:05:01.371Z,96498.00
2019-03-06T12:07:33.609Z,96499.00
2019-03-06T12:10:07.123Z,96475.00
2019-03-06T12:12:38.831Z,96483.00
2019-03-06T12:15:11.616Z,96474.00
2019-03-06T12:17:42.861Z,96480.00
2019-03-06T12:20:15.724Z,96467.00
2019-03-06T12:22:46.888Z,96460.00
2019-03-06T12:25:19.220Z,96458.00
2019-03-06T12:27:50.532Z,96455.00
2019-03-06T12:30:22.143Z,96445.00
2019-03-06T12:32:53.759Z,96436.00
2019-03-06T12:35:25.058Z,96438.00
2019-03-06T12:37:56.556Z,96413.00
2019-03-06T12:40:28.820Z,96415.00
2019-03-06T12:43:00.047Z,96413.00
2019-03-06T12:45:32.483Z,96408.00
2019-03-06T12:48:04.024Z,96404.00
2019-03-06T12:50:35.250Z,96403.00
2019-03-06T12:53:06.780Z,96389.00
2019-03-06T12:55:38.548Z,96386.00
2019-03-06T12:58:09.779Z,96389.00
2019-03-06T13:00:41.650Z,96381.00
2019-03-06T13:03:12.816Z,96380.00
2019-03-06T13:05:44.014Z,96382.00
2019-03-06T13:08:19.652Z,96382.00
2019-03-06T13:10:48.190Z,96379.00
2019-03-06T13:13:20.360Z,96360.00
2019-03-06T13:15:51.719Z,96359.00
2019-03-06T13:18:22.958Z,96350.00
2019-03-06T13:20:54.239Z,96360.00
2019-03-06T13:23:25.418Z,96335.00
2019-03-06T13:25:57.812Z,96343.00
2019-03-06T13:28:29.104Z,96342.00
2019-03-06T13:31:00.926Z,96324.00
2019-03-06T13:33:53.803Z,96324.00
2019-03-06T13:36:25.261Z,96310.00
2019-03-06T13:39:06.052Z,96306.00
2019-03-06T13:41:30.935Z,96305.00
2019-03-06T13:44:02.109Z,96298.00
2019-03-06T13:46:33.850Z,96280.00
2019-03-06T13:49:05.726Z,96281.00
2019-03-06T13:51:37.085Z,96284.00
2019-03-06T13:54:09.416Z,96278.00
2019-03-06T13:56:40.723Z,96281.00
2019-03-06T13:59:12.020Z,96268.00
2019-03-06T14:01:44.888Z,96267.00
2019-03-06T14:04:16.225Z,96254.00
2019-03-06T14:06:47.915Z,96256.00
2019-03-06T14:09:19.283Z,96260.00
2019-03-06T14:11:50.472Z,96251.00
2019-03-06T14:14:21.806Z,96250.00
2019-03-06T14:16:53.099Z,96238.00
2019-03-06T14:19:24.703Z,96236.00
2019-03-06T14:21:55.969Z,96235.00
2019-03-06T14:24:27.202Z,96216.00
2019-03-06T14:26:58.396Z,96219.00
2019-03-06T14:29:29.632Z,96216.00
2019-03-06T14:32:00.832Z,96217.00
2019-03-06T14:34:31.999Z,96196.00
2019-03-06T14:37:04.532Z,96204.00
2019-03-06T14:39:35.894Z,96196.00
2019-03-06T14:42:07.272Z,96181.00
2019-03-06T14:44:38.520Z,96189.00
2019-03-06T14:47:10.718Z,96162.00
2019-03-06T14:49:41.885Z,96184.00
2019-03-06T14:52:13.158Z,96182.00
2019-03-06T14:54:44.399Z,96167.00
2019-03-06T14:57:17.119Z,96171.00
2019-03-06T14:59:48.428Z,96170.00
2019-03-06T15:02:19.728Z,96178.00
2019-03-06T15:04:50.815Z,96181.00
2019-03-06T15:07:21.970Z,96154.00
2019-03-06T15:09:53.126Z,96168.00
2019-03-06T15:12:24.179Z,96150.00
2019-03-06T15:14:55.440Z,96155.00
2019-03-06T15:17:26.707Z,96148.00
2019-03-06T15:19:57.950Z,96145.00
2019-03-06T15:22:38.411Z,96148.00
2019-03-06T15:25:03.900Z,96141.00
2019-03-06T15:27:35.175Z,96131.00
2019-03-06T15:30:07.826Z,96138.00
2019-03-06T15:32:39.713Z,96127.00
2019-03-06T15:35:11.796Z,96129.00
2019-03-06T15:37:44.603Z,96129.00
2019-03-06T15:40:22.273Z,96112.00
2019-03-06T15:42:53.709Z,96117.00
2019-03-06T15:45:30.303Z,96123.00
2019-03-06T15:48:02.730Z,96109.00
2019-03-06T15:50:34.656Z,96120.00
2019-03-06T15:53:05.904Z,96127.00
2019-03-06T15:55:37.523Z,96124.00
2019-03-06T15:58:09.116Z,96113.00
2019-03-06T16:00:46.377Z,96120.00
2019-03-06T16:03:13.669Z,96100.00
2019-03-06T16:05:45.209Z,96113.00
2019-03-06T16:08:16.780Z,96105.00
2019-03-06T16:10:48.618Z,96101.00
2019-03-06T16:13:20.018Z,96104.00
2019-03-06T16:15:51.534Z,96101.00
2019-03-06T16:18:22.792Z,96110.00
2019-03-06T16:20:54.039Z,96098.00
2019-03-06T16:23:25.544Z,96079.00
2019-03-06T16:25:56.927Z,96088.00
2019-03-06T16:28:28.132Z,96088.00
2019-03-06T16:30:59.360Z,96084.00
2019-03-06T16:33:30.975Z,96083.00
2019-03-06T16:36:02.134Z,96074.00
2019-03-06T16:38:33.503Z,96079.00
2019-03-06T16:41:04.872Z,96078.00
2019-03-06T16:43:36.544Z,96087.00
2019-03-06T16:46:07.816Z,96078.00
2019-03-06T16:48:39.159Z,96081.00
2019-03-06T16:51:10.888Z,96079.00
2019-03-06T16:53:42.177Z,96087.00
2019-03-06T16:56:13.408Z,96088.00
2019-03-06T16:58:44.619Z,96063.00
2019-03-06T17:01:15.953Z,96070.00
2019-03-06T17:03:47.348Z,96053.00
2019-03-06T17:06:19.111Z,96045.00
2019-03-06T17:08:50.740Z,96044.00
2019-03-06T17:11:21.902Z,96049.00
2019-03-06T17:13:53.197Z,96055.00
2019-03-06T17:16:24.455Z,96049.00
2019-03-06T17:18:55.822Z,96060.00
2019-03-06T17:21:27.156Z,96056.00
2019-03-06T17:23:58.596Z,96060.00
2019-03-06T17:26:30.070Z,96045.00
2019-03-06T17:29:12.747Z,96048.00
2019-03-06T17:31:44.868Z,96037.00
2019-03-06T17:34:16.364Z,96028.00
2019-03-06T17:36:47.523Z,96033.00
2019-03-06T17:39:19.323Z,96028.00
2019-03-06T17:41:50.500Z,96018.00
2019-03-06T17:44:22.036Z,96022.00
2019-03-06T17:46:53.362Z,96032.00
2019-03-06T17:49:24.651Z,96021.00
2019-03-06T17:51:55.891Z,96022.00
2019-03-06T17:54:27.417Z,96015.00
2019-03-06T17:56:58.958Z,96024.00
2019-03-06T17:59:30.412Z,96004.00
2019-03-06T18:02:02.170Z,95996.00
2019-03-06T18:04:33.855Z,96000.00
2019-03-06T18:07:06.190Z,96010.00
2019-03-06T18:09:37.847Z,95991.00
2019-03-06T18:12:09.171Z,95990.00
2019-03-06T18:14:40.561Z,95978.00
2019-03-06T18:17:11.801Z,95988.00
2019-03-06T18:19:43.159Z,95992.00
2019-03-06T18:22:14.298Z,95984.00
2019-03-06T18:24:46.650Z,95971.00
2019-03-06T18:27:26.063Z,95967.00
2019-03-06T18:29:51.675Z,95972.00
2019-03-06T18:32:23.705Z,95972.00
2019-03-06T18:34:55.043Z,95965.00
2019-03-06T18:37:26.626Z,95972.00
2019-03-06T18:39:57.926Z,95954.00
2019-03-06T18:42:29.466Z,95967.00
2019-03-06T18:45:00.766Z,95955.00
2019-03-06T18:47:32.294Z,95953.00
2019-03-06T18:50:03.570Z,95947.00
2019-03-06T18:52:35.197Z,95935.00
2019-03-06T18:55:09.711Z,95941.00
2019-03-06T18:57:43.699Z,95932.00
2019-03-06T19:00:19.055Z,95928.00
2019-03-06T19:02:50.374Z,95935.00
2019-03-06T19:05:22.879Z,95920.00
2019-03-06T19:07:54.907Z,95923.00
2019-03-06T19:10:26.967Z,95930.00
2019-03-06T19:12:58.305Z,95928.00
2019-03-06T19:15:29.641Z,95933.00
2019-03-06T19:18:00.870Z,95938.00
2019-03-06T19:20:33.504Z,95925.00
2019-03-06T19:23:05.055Z,95922.00
2019-03-06T19:25:36.531Z,95916.00
2019-03-06T19:28:08.222Z,95924.00
2019-03-06T19:30:39.626Z,95916.00
2019-03-06T19:33:11.163Z,95918.00
2019-03-06T19:35:42.224Z,95916.00
2019-03-06T19:38:13.420Z,95917.00
2019-03-06T19:40:44.902Z,95912.00
2019-03-06T19:43:16.251Z,95923.00
2019-03-06T19:45:47.461Z,95915.00
2019-03-06T19:48:18.625Z,95910.00
2019-03-06T19:50:51.523Z,95906.00
2019-03-06T19:53:23.332Z,95914.00
2019-03-06T19:55:55.034Z,95910.00
2019-03-06T19:58:26.252Z,95909.00
2019-03-06T20:00:57.802Z,95900.00
2019-03-06T20:03:29.565Z,95896.00
2019-03-06T20:06:00.916Z,95897.00
2019-03-06T20:08:32.442Z,95894.00
2019-03-06T20:11:03.711Z,95878.00
2019-03-06T20:13:35.138Z,95892.00
2019-03-06T20:16:06.610Z,95879.00
2019-03-06T20:18:37.836Z,95878.00
2019-03-06T20:21:09.053Z,95866.00
2019-03-06T20:23:40.350Z,95865.00
2019-03-06T20:26:14.858Z,95859.00
2019-03-06T20:28:44.331Z,95862.00
2019-03-06T20:31:15.433Z,95852.00
2019-03-06T20:33:46.589Z,95853.00
2019-03-06T20:36:17.782Z,95858.00
2019-03-06T20:38:48.967Z,95858.00
2019-03-06T20:41:20.182Z,95852.00
2019-03-06T20:43:51.346Z,95845.00
2019-03-06T20:46:22.489Z,95858.00
2019-03-06T20:48:53.945Z,95853.00
2019-03-06T20:51:25.187Z,95857.00
2019-03-06T20:53:56.755Z,95856.00
2019-03-06T20:56:27.972Z,95853.00
2019-03-06T20:58:59.059Z,95851.00
2019-03-06T21:01:30.989Z,95855.00
2019-03-06T21:04:02.450Z,95852.00
2019-03-06T21:06:36.358Z,95854.00
2019-03-06T21:09:07.677Z,95862.00
2019-03-06T21:11:40.549Z,95866.00
2019-03-06T21:14:11.680Z,95860.00
2019-03-06T21:16:42.972Z,95854.00
2019-03-06T21:19:14.138Z,95852.00
2019-03-06T21:21:45.529Z,95851.00
2019-03-06T21:24:16.729Z,95853.00
2019-03-06T21:26:48.276Z,95851.00
2019-03-06T21:29:19.438Z,95856.00
2019-03-06T21:31:50.622Z,95859.00
2019-03-06T21:34:22.102Z,95857.00
2019-03-06T21:36:53.280Z,95845.00
2019-03-06T21:39:26.195Z,95842.00
2019-03-06T21:41:57.446Z,95840.00
2019-03-06T21:44:29.518Z,95840.00
2019-03-06T21:47:00.804Z,95836.00
2019-03-06T21:49:32.334Z,95838.00
2019-03-06T21:52:03.947Z,95850.00
2019-03-06T21:54:35.104Z,95848.00
2019-03-06T21:57:06.587Z,95836.00
2019-03-06T21:59:37.662Z,95814.00
2019-03-06T22:02:08.948Z,95839.00
2019-03-06T22:04:41.873Z,95825.00
2019-03-06T22:07:12.971Z,95832.00
2019-03-06T22:09:43.962Z,95821.00
2019-03-06T22:12:15.289Z,95814.00
2019-03-06T22:14:46.362Z,95811.00
2019-03-06T22:17:17.831Z,95811.00
2019-03-06T22:19:48.904Z,95808.00
2019-03-06T22:22:20.192Z,95805.00
2019-03-06T22:24:51.337Z,95808.00
2019-03-06T22:27:22.854Z,95796.00
2019-03-06T22:29:54.103Z,95801.00
2019-03-06T22:32:25.293Z,95805.00
2019-03-06T22:34:56.441Z,95797.00
2019-03-06T22:37:27.699Z,95792.00
2019-03-06T22:39:58.802Z,95793.00
2019-03-06T22:42:30.224Z,95796.00
2019-03-06T22:45:01.453Z,95785.00
2019-03-06T22:47:32.641Z,95784.00
2019-03-06T22:50:03.811Z,95785.00
2019-03-06T22:52:34.911Z,95788.00
2019-03-06T22:55:06.662Z,95791.00
2019-03-06T22:57:37.783Z,95786.00
2019-03-06T23:00:38.150Z,95787.00
2019-03-06T23:03:11.386Z,95782.00
2019-03-06T23:05:42.990Z,95780.00
2019-03-06T23:08:14.705Z,95771.00
2019-03-06T23:10:45.989Z,95759.00
2019-03-06T23:13:17.321Z,95756.00
2019-03-06T23:15:48.479Z,95760.00
2019-03-06T23:18:19.702Z,95756.00
2019-03-06T23:20:50.866Z,95760.00
2019-03-06T23:23:21.962Z,95755.00
2019-03-06T23:25:53.201Z,95765.00
2019-03-06T23:28:24.349Z,95752.00
2019-03-06T23:30:55.450Z,95745.00
2019-03-06T23:33:26.799Z,95741.00
2019-03-06T23:35:58.359Z,95742.00
2019-03-06T23:38:29.686Z,95749.00
2019-03-06T23:41:00.863Z,95731.00
2019-03-06T23:43:32.036Z,95741.00
2019-03-06T23:46:03.342Z,95728.00
2019-03-06T23:48:35.882Z,95733.00
2019-03-06T23:51:14.066Z,95718.00
2019-03-06T23:53:48.384Z,95721.00
2019-03-06T23:56:19.901Z,95721.00
2019-03-06T23:58:51.162Z,95710.00
